createdAt,value
2018-06-09T00:00:45.532Z,99.90
2018-06-09T00:01:49.553Z,99.90
2018-06-09T00:02:53.613Z,99.90
2018-06-09T00:03:57.670Z,99.90
2018-06-09T00:05:02.087Z,99.90
2018-06-09T00:06:06.466Z,99.90
2018-06-09T00:07:10.556Z,99.90
2018-06-09T00:08:14.563Z,99.90
2018-06-09T00:09:18.582Z,99.90
2018-06-09T00:10:22.605Z,99.90
2018-06-09T00:12:30.275Z,99.90
2018-06-09T00:13:34.315Z,99.90
2018-06-09T00:14:38.430Z,99.90
2018-06-09T00:15:42.450Z,99.90
2018-06-09T00:16:46.409Z,99.90
2018-06-09T00:17:50.367Z,99.90
2018-06-09T00:18:54.399Z,99.90
2018-06-09T00:19:58.427Z,99.90
2018-06-09T00:22:06.088Z,99.90
2018-06-09T00:23:10.143Z,99.90
2018-06-09T00:24:14.145Z,99.90
2018-06-09T00:25:18.239Z,99.90
2018-06-09T00:26:22.262Z,99.90
2018-06-09T00:27:26.347Z,99.90
2018-06-09T00:28:30.403Z,99.90
2018-06-09T00:29:34.440Z,99.90
2018-06-09T00:30:38.482Z,99.90
2018-06-09T00:31:42.498Z,99.90
2018-06-09T00:33:50.107Z,99.90
2018-06-09T00:34:54.141Z,99.90
2018-06-09T00:35:58.156Z,99.90
2018-06-09T00:37:02.166Z,99.90
2018-06-09T00:38:06.501Z,99.90
2018-06-09T00:39:10.572Z,99.90
2018-06-09T00:40:14.654Z,99.90
2018-06-09T00:41:18.735Z,99.90
2018-06-09T00:42:22.851Z,99.90
2018-06-09T00:43:26.853Z,99.90
2018-06-09T00:44:30.879Z,99.90
2018-06-09T00:45:34.902Z,99.90
2018-06-09T00:46:38.940Z,99.90
2018-06-09T00:47:42.990Z,99.90
2018-06-09T00:48:47.044Z,99.90
2018-06-09T00:49:51.099Z,99.90
2018-06-09T00:50:55.063Z,99.90
2018-06-09T00:51:59.152Z,99.90
2018-06-09T00:53:03.189Z,99.90
2018-06-09T00:54:07.207Z,99.90
2018-06-09T00:55:11.253Z,99.90
2018-06-09T00:56:26.770Z,99.90
2018-06-09T00:57:31.097Z,99.90
2018-06-09T00:58:35.190Z,99.90
2018-06-09T00:59:39.226Z,99.90
2018-06-09T01:01:46.942Z,99.90
2018-06-09T01:02:50.983Z,99.90
2018-06-09T01:03:55.027Z,99.90
2018-06-09T01:04:59.100Z,99.90
2018-06-09T01:06:03.082Z,99.90
2018-06-09T01:07:07.152Z,99.90
2018-06-09T01:08:11.193Z,99.90
2018-06-09T01:09:15.210Z,99.90
2018-06-09T01:10:19.260Z,99.90
2018-06-09T01:11:23.312Z,99.90
2018-06-09T01:12:27.273Z,99.90
2018-06-09T01:13:31.275Z,99.90
2018-06-09T01:14:35.447Z,99.90
2018-06-09T01:15:39.428Z,99.90
2018-06-09T01:16:43.430Z,99.90
2018-06-09T01:17:47.501Z,99.90
2018-06-09T01:18:51.469Z,99.90
2018-06-09T01:19:55.478Z,99.90
2018-06-09T01:20:59.632Z,99.90
2018-06-09T01:22:03.678Z,99.90
2018-06-09T01:23:07.837Z,99.90
2018-06-09T01:24:11.802Z,99.90
2018-06-09T01:25:15.879Z,99.90
2018-06-09T01:26:19.910Z,99.90
2018-06-09T01:27:23.946Z,99.90
2018-06-09T01:28:27.935Z,99.90
2018-06-09T01:29:31.980Z,99.90
2018-06-09T01:30:36.000Z,99.90
2018-06-09T01:31:40.052Z,99.90
2018-06-09T01:32:44.131Z,99.90
2018-06-09T01:33:48.249Z,99.90
2018-06-09T01:34:52.243Z,99.90
2018-06-09T01:35:56.262Z,99.90
2018-06-09T01:37:00.266Z,99.90
2018-06-09T01:38:04.543Z,99.90
2018-06-09T01:39:09.094Z,99.90
2018-06-09T01:40:13.142Z,99.90
2018-06-09T01:41:17.135Z,99.90
2018-06-09T01:42:21.106Z,99.90
2018-06-09T01:44:28.823Z,99.90
2018-06-09T01:45:32.817Z,99.90
2018-06-09T01:46:36.835Z,99.90
2018-06-09T01:47:40.824Z,99.90
2018-06-09T01:48:44.873Z,99.90
2018-06-09T01:49:48.902Z,99.90
2018-06-09T01:50:52.904Z,99.90
2018-06-09T01:51:56.936Z,99.90
2018-06-09T01:53:00.983Z,99.90
2018-06-09T01:54:04.955Z,99.90
2018-06-09T01:55:08.981Z,99.90
2018-06-09T01:56:12.982Z,99.90
2018-06-09T01:57:17.004Z,99.90
2018-06-09T01:58:21.037Z,99.90
2018-06-09T01:59:25.136Z,99.90
2018-06-09T02:00:29.144Z,99.90
2018-06-09T02:01:33.461Z,99.90
2018-06-09T02:02:37.464Z,99.90
2018-06-09T02:03:41.525Z,99.90
2018-06-09T02:04:45.621Z,99.90
2018-06-09T02:05:49.654Z,99.90
2018-06-09T02:06:53.730Z,99.90
2018-06-09T02:07:57.763Z,99.90
2018-06-09T02:09:01.757Z,99.90
2018-06-09T02:10:05.943Z,99.90
2018-06-09T02:11:09.968Z,99.90
2018-06-09T02:12:13.982Z,99.90
2018-06-09T02:13:17.993Z,99.90
2018-06-09T02:14:22.109Z,99.90
2018-06-09T02:15:26.174Z,99.90
2018-06-09T02:16:30.214Z,99.90
2018-06-09T02:17:34.250Z,99.90
2018-06-09T02:18:38.251Z,99.90
2018-06-09T02:19:42.267Z,99.90
2018-06-09T02:20:46.244Z,99.90
2018-06-09T02:21:50.302Z,99.90
2018-06-09T02:22:54.300Z,99.90
2018-06-09T02:23:58.280Z,99.90
2018-06-09T02:25:02.303Z,99.90
2018-06-09T02:26:06.319Z,99.90
2018-06-09T02:27:10.362Z,99.90
2018-06-09T02:28:14.378Z,99.90
2018-06-09T02:29:18.497Z,99.90
2018-06-09T02:30:22.512Z,99.90
2018-06-09T02:31:26.624Z,99.90
2018-06-09T02:32:30.658Z,99.90
2018-06-09T02:33:34.703Z,99.90
2018-06-09T02:34:38.687Z,99.90
2018-06-09T02:35:42.699Z,99.90
2018-06-09T02:36:46.771Z,99.90
2018-06-09T02:37:50.734Z,99.90
2018-06-09T02:38:54.693Z,99.90
2018-06-09T02:39:58.768Z,99.90
2018-06-09T02:41:02.803Z,99.90
2018-06-09T02:42:06.888Z,99.90
2018-06-09T02:43:10.890Z,99.90
2018-06-09T02:44:14.883Z,99.90
2018-06-09T02:45:18.951Z,99.90
2018-06-09T02:46:22.964Z,99.90
2018-06-09T02:47:26.962Z,99.90
2018-06-09T02:48:30.958Z,99.90
2018-06-09T02:49:34.933Z,99.90
2018-06-09T02:50:38.971Z,99.90
2018-06-09T02:51:42.977Z,99.90
2018-06-09T02:52:47.122Z,99.90
2018-06-09T02:53:51.144Z,99.90
2018-06-09T02:54:55.138Z,99.90
2018-06-09T02:55:59.481Z,99.90
2018-06-09T02:57:03.500Z,99.90
2018-06-09T02:58:07.626Z,99.90
2018-06-09T02:59:11.718Z,99.90
2018-06-09T03:00:15.925Z,99.90
2018-06-09T03:01:19.977Z,99.90
2018-06-09T03:02:24.085Z,99.90
2018-06-09T03:03:28.078Z,99.90
2018-06-09T03:04:32.090Z,99.90
2018-06-09T03:05:36.133Z,99.90
2018-06-09T03:06:40.151Z,99.90
2018-06-09T03:07:44.177Z,99.90
2018-06-09T03:08:48.189Z,99.90
2018-06-09T03:09:52.154Z,99.90
2018-06-09T03:10:56.253Z,99.90
2018-06-09T03:12:00.307Z,99.90
2018-06-09T03:13:04.338Z,99.90
2018-06-09T03:14:08.362Z,99.90
2018-06-09T03:15:12.399Z,99.90
2018-06-09T03:16:16.370Z,99.90
2018-06-09T03:17:20.370Z,99.90
2018-06-09T03:18:24.391Z,99.90
2018-06-09T03:19:28.447Z,99.90
2018-06-09T03:20:32.502Z,99.90
2018-06-09T03:21:36.483Z,99.90
2018-06-09T03:22:40.487Z,99.90
2018-06-09T03:23:44.484Z,99.90
2018-06-09T03:24:48.469Z,99.90
2018-06-09T03:26:56.183Z,99.90
2018-06-09T03:28:00.179Z,99.90
2018-06-09T03:29:04.162Z,99.90
2018-06-09T03:30:08.206Z,99.90
2018-06-09T03:31:12.332Z,99.90
2018-06-09T03:32:16.441Z,99.90
2018-06-09T03:33:20.428Z,99.90
2018-06-09T03:34:24.405Z,99.90
2018-06-09T03:35:28.422Z,99.90
2018-06-09T03:36:32.415Z,99.90
2018-06-09T03:37:36.422Z,99.90
2018-06-09T03:38:40.396Z,99.90
2018-06-09T03:39:44.344Z,99.90
2018-06-09T03:40:48.353Z,99.90
2018-06-09T03:41:52.401Z,99.90
2018-06-09T03:42:56.411Z,99.90
2018-06-09T03:44:00.469Z,99.90
2018-06-09T03:45:04.600Z,99.90
2018-06-09T03:46:08.558Z,99.90
2018-06-09T03:47:12.691Z,99.90
2018-06-09T03:48:16.699Z,99.90
2018-06-09T03:49:20.744Z,99.90
2018-06-09T03:50:24.752Z,99.90
2018-06-09T03:51:28.781Z,99.90
2018-06-09T03:52:32.823Z,99.90
2018-06-09T03:53:36.822Z,99.90
2018-06-09T03:54:40.802Z,99.90
2018-06-09T03:55:44.809Z,99.90
2018-06-09T03:56:48.796Z,99.90
2018-06-09T03:57:52.909Z,99.90
2018-06-09T04:00:00.613Z,99.90
2018-06-09T04:01:04.651Z,99.90
2018-06-09T04:02:08.663Z,99.90
2018-06-09T04:03:12.687Z,99.90
2018-06-09T04:04:16.710Z,99.90
2018-06-09T04:05:20.663Z,99.90
2018-06-09T04:06:24.660Z,99.90
2018-06-09T04:07:28.637Z,99.90
2018-06-09T04:08:32.634Z,99.90
2018-06-09T04:09:36.662Z,99.90
2018-06-09T04:10:40.707Z,99.90
2018-06-09T04:11:44.719Z,99.90
2018-06-09T04:12:48.738Z,99.90
2018-06-09T04:13:52.738Z,99.90
2018-06-09T04:14:56.752Z,99.90
2018-06-09T04:16:00.772Z,99.90
2018-06-09T04:17:04.795Z,99.90
2018-06-09T04:18:08.813Z,99.90
2018-06-09T04:19:12.797Z,99.90
2018-06-09T04:21:20.492Z,99.90
2018-06-09T04:22:24.456Z,99.90
2018-06-09T04:23:28.462Z,99.90
2018-06-09T04:24:32.473Z,99.90
2018-06-09T04:25:36.589Z,99.90
2018-06-09T04:26:40.605Z,99.90
2018-06-09T04:27:44.603Z,99.90
2018-06-09T04:28:48.598Z,99.90
2018-06-09T04:29:52.592Z,99.90
2018-06-09T04:30:56.612Z,99.90
2018-06-09T04:32:00.623Z,99.90
2018-06-09T04:33:04.627Z,99.90
2018-06-09T04:34:08.675Z,99.90
2018-06-09T04:35:12.702Z,99.90
2018-06-09T04:36:16.726Z,99.90
2018-06-09T04:37:20.809Z,99.90
2018-06-09T04:38:24.839Z,99.90
2018-06-09T04:39:28.988Z,99.90
2018-06-09T04:40:32.934Z,99.90
2018-06-09T04:41:37.042Z,99.90
2018-06-09T04:42:41.025Z,99.90
2018-06-09T04:43:45.107Z,99.90
2018-06-09T04:44:49.122Z,99.90
2018-06-09T04:45:53.120Z,99.90
2018-06-09T04:46:57.117Z,99.90
2018-06-09T04:48:01.133Z,99.90
2018-06-09T04:49:05.171Z,99.90
2018-06-09T04:50:09.212Z,99.90
2018-06-09T04:51:13.241Z,99.90
2018-06-09T04:52:17.288Z,99.90
2018-06-09T04:53:21.268Z,99.90
2018-06-09T04:54:25.309Z,99.90
2018-06-09T04:55:29.341Z,99.90
2018-06-09T04:56:33.372Z,99.90
2018-06-09T04:57:37.396Z,99.90
2018-06-09T04:58:41.399Z,99.90
2018-06-09T04:59:45.380Z,99.90
2018-06-09T05:00:49.374Z,99.90
2018-06-09T05:01:53.378Z,99.90
2018-06-09T05:02:57.429Z,99.90
2018-06-09T05:04:01.419Z,99.90
2018-06-09T05:05:05.490Z,99.90
2018-06-09T05:06:09.594Z,99.90
2018-06-09T05:07:13.619Z,99.90
2018-06-09T05:08:17.627Z,99.90
2018-06-09T05:09:21.749Z,99.90
2018-06-09T05:10:25.742Z,99.90
2018-06-09T05:11:29.865Z,99.90
2018-06-09T05:12:34.034Z,99.90
2018-06-09T05:13:38.044Z,99.90
2018-06-09T05:14:42.047Z,99.90
2018-06-09T05:15:46.103Z,99.90
2018-06-09T05:16:50.116Z,99.90
2018-06-09T05:17:54.155Z,99.90
2018-06-09T05:18:58.171Z,99.90
2018-06-09T05:20:02.155Z,99.90
2018-06-09T05:21:06.244Z,99.90
2018-06-09T05:22:10.258Z,99.90
2018-06-09T05:23:14.277Z,99.90
2018-06-09T05:24:18.281Z,99.90
2018-06-09T05:25:22.337Z,99.90
2018-06-09T05:26:26.375Z,99.90
2018-06-09T05:27:30.380Z,99.90
2018-06-09T05:28:34.457Z,99.90
2018-06-09T05:29:38.463Z,99.90
2018-06-09T05:30:42.521Z,99.90
2018-06-09T05:31:46.510Z,99.90
2018-06-09T05:32:50.562Z,99.90
2018-06-09T05:33:54.575Z,99.90
2018-06-09T05:34:58.565Z,99.90
2018-06-09T05:36:02.552Z,99.90
2018-06-09T05:37:06.591Z,99.90
2018-06-09T05:38:10.638Z,99.90
2018-06-09T05:39:14.647Z,99.90
2018-06-09T05:40:18.730Z,99.90
2018-06-09T05:41:22.708Z,99.90
2018-06-09T05:42:26.706Z,99.90
2018-06-09T05:44:34.387Z,99.90
2018-06-09T05:45:38.398Z,99.90
2018-06-09T05:46:42.380Z,99.90
2018-06-09T05:47:46.442Z,99.90
2018-06-09T05:48:50.478Z,99.90
2018-06-09T05:49:54.470Z,99.90
2018-06-09T05:50:58.671Z,99.90
2018-06-09T05:52:02.748Z,99.90
2018-06-09T05:53:06.834Z,99.90
2018-06-09T05:54:11.085Z,99.90
2018-06-09T05:55:15.420Z,99.90
2018-06-09T05:56:19.818Z,99.90
2018-06-09T05:57:24.436Z,99.90
2018-06-09T05:58:28.584Z,99.90
2018-06-09T05:59:32.987Z,99.90
2018-06-09T06:00:37.243Z,99.90
2018-06-09T06:01:41.702Z,99.90
2018-06-09T06:02:46.818Z,99.90
2018-06-09T06:03:51.184Z,99.90
2018-06-09T06:04:55.321Z,99.90
2018-06-09T06:07:03.760Z,99.90
2018-06-09T06:08:07.992Z,99.90
2018-06-09T06:09:12.534Z,99.90
2018-06-09T06:10:16.773Z,99.90
2018-06-09T06:11:21.057Z,99.90
2018-06-09T06:12:25.503Z,99.90
2018-06-09T06:13:29.903Z,99.90
2018-06-09T06:14:34.458Z,99.90
2018-06-09T06:15:38.735Z,99.90
2018-06-09T06:16:43.205Z,99.90
2018-06-09T06:17:47.304Z,99.90
2018-06-09T06:18:51.564Z,99.90
2018-06-09T06:20:59.167Z,99.90
2018-06-09T06:22:03.187Z,99.90
2018-06-09T06:23:07.175Z,99.90
2018-06-09T06:24:11.203Z,99.90
2018-06-09T06:25:15.202Z,99.90
2018-06-09T06:26:19.202Z,99.90
2018-06-09T06:27:23.161Z,99.90
2018-06-09T06:28:27.169Z,99.90
2018-06-09T06:29:31.198Z,99.90
2018-06-09T06:30:35.208Z,99.90
2018-06-09T06:31:39.235Z,99.90
2018-06-09T06:32:43.239Z,99.90
2018-06-09T06:33:47.279Z,99.90
2018-06-09T06:34:51.316Z,99.90
2018-06-09T06:35:55.382Z,99.90
2018-06-09T06:36:59.483Z,99.90
2018-06-09T06:38:03.587Z,99.90
2018-06-09T06:39:08.906Z,99.90
2018-06-09T06:41:16.604Z,99.90
2018-06-09T06:42:20.601Z,99.90
2018-06-09T06:43:24.645Z,99.90
2018-06-09T06:44:28.616Z,99.90
2018-06-09T06:45:32.678Z,99.90
2018-06-09T06:46:36.665Z,99.90
2018-06-09T06:47:40.711Z,99.90
2018-06-09T06:48:44.760Z,99.90
2018-06-09T06:49:48.719Z,99.90
2018-06-09T06:50:52.749Z,99.90
2018-06-09T06:51:56.731Z,99.90
2018-06-09T06:53:00.722Z,99.90
2018-06-09T06:54:04.717Z,99.90
2018-06-09T06:55:08.766Z,99.90
2018-06-09T06:56:12.741Z,99.90
2018-06-09T06:57:16.759Z,99.90
2018-06-09T06:58:20.803Z,99.90
2018-06-09T06:59:24.888Z,99.90
2018-06-09T07:00:28.841Z,99.90
2018-06-09T07:01:32.887Z,99.90
2018-06-09T07:02:37.011Z,99.90
2018-06-09T07:03:40.981Z,99.90
2018-06-09T07:04:45.146Z,99.90
2018-06-09T07:05:49.186Z,99.90
2018-06-09T07:06:53.201Z,99.90
2018-06-09T07:07:57.249Z,99.90
2018-06-09T07:09:01.237Z,99.90
2018-06-09T07:10:05.244Z,99.90
2018-06-09T07:11:09.306Z,99.90
2018-06-09T07:12:13.317Z,99.90
2018-06-09T07:14:20.966Z,99.90
2018-06-09T07:15:24.962Z,99.90
2018-06-09T07:16:29.023Z,99.90
2018-06-09T07:17:32.995Z,99.90
2018-06-09T07:18:37.013Z,99.90
2018-06-09T07:19:41.030Z,99.90
2018-06-09T07:20:45.020Z,99.90
2018-06-09T07:21:49.111Z,99.90
2018-06-09T07:22:53.067Z,99.90
2018-06-09T07:23:57.086Z,99.90
2018-06-09T07:25:01.118Z,99.90
2018-06-09T07:26:05.320Z,99.90
2018-06-09T07:27:09.331Z,99.90
2018-06-09T07:28:16.050Z,99.90
2018-06-09T07:29:20.052Z,99.90
2018-06-09T07:30:24.053Z,99.90
2018-06-09T07:31:28.064Z,99.90
2018-06-09T07:32:32.052Z,99.90
2018-06-09T07:33:36.083Z,99.90
2018-06-09T07:34:40.080Z,99.90
2018-06-09T07:35:44.155Z,99.90
2018-06-09T07:36:48.176Z,99.90
2018-06-09T07:37:52.174Z,99.90
2018-06-09T07:38:56.143Z,99.90
2018-06-09T07:40:00.139Z,99.90
2018-06-09T07:41:04.150Z,99.90
2018-06-09T07:42:08.210Z,99.90
2018-06-09T07:43:12.253Z,99.90
2018-06-09T07:44:16.307Z,99.90
2018-06-09T07:45:20.308Z,99.90
2018-06-09T07:46:24.346Z,99.90
2018-06-09T07:47:28.415Z,99.90
2018-06-09T07:48:32.417Z,99.90
2018-06-09T07:49:36.446Z,99.90
2018-06-09T07:50:40.753Z,99.90
2018-06-09T07:51:44.756Z,99.90
2018-06-09T07:52:48.771Z,99.90
2018-06-09T07:53:52.771Z,99.90
2018-06-09T07:54:56.810Z,99.90
2018-06-09T07:56:00.830Z,99.90
2018-06-09T07:57:04.866Z,99.90
2018-06-09T07:58:08.857Z,99.90
2018-06-09T07:59:12.867Z,99.90
2018-06-09T08:00:16.930Z,99.90
2018-06-09T08:01:20.938Z,99.90
2018-06-09T08:03:28.653Z,99.90
2018-06-09T08:04:32.673Z,99.90
2018-06-09T08:05:36.712Z,99.90
2018-06-09T08:06:40.730Z,99.90
2018-06-09T08:08:48.467Z,99.90
2018-06-09T08:09:52.668Z,99.90
2018-06-09T08:10:56.661Z,99.90
2018-06-09T08:12:00.685Z,99.90
2018-06-09T08:13:04.691Z,99.90
2018-06-09T08:14:08.721Z,99.90
2018-06-09T08:15:12.794Z,99.90
2018-06-09T08:16:16.822Z,99.90
2018-06-09T08:17:21.149Z,99.90
2018-06-09T08:18:25.159Z,99.90
2018-06-09T08:19:29.219Z,99.90
2018-06-09T08:20:33.164Z,99.90
2018-06-09T08:22:40.914Z,99.90
2018-06-09T08:23:44.891Z,99.90
2018-06-09T08:24:48.882Z,99.90
2018-06-09T08:25:52.896Z,99.90
2018-06-09T08:26:56.952Z,99.90
2018-06-09T08:29:04.739Z,99.90
2018-06-09T08:30:08.706Z,99.90
2018-06-09T08:31:13.000Z,99.90
2018-06-09T08:32:17.038Z,99.90
2018-06-09T08:33:21.123Z,99.90
2018-06-09T08:34:25.158Z,99.90
2018-06-09T08:35:29.156Z,99.90
2018-06-09T08:36:33.182Z,99.90
2018-06-09T08:37:37.277Z,99.90
2018-06-09T08:38:41.277Z,99.90
2018-06-09T08:39:45.272Z,99.90
2018-06-09T08:40:49.336Z,99.90
2018-06-09T08:41:53.422Z,99.90
2018-06-09T08:42:57.404Z,99.90
2018-06-09T08:44:01.463Z,99.90
2018-06-09T08:45:05.491Z,99.90
2018-06-09T08:46:09.508Z,99.90
2018-06-09T08:47:13.535Z,99.90
2018-06-09T08:48:17.550Z,99.90
2018-06-09T08:49:21.637Z,99.90
2018-06-09T08:50:25.638Z,99.90
2018-06-09T08:51:29.694Z,99.90
2018-06-09T08:52:33.721Z,99.90
2018-06-09T08:53:37.723Z,99.90
2018-06-09T08:54:41.715Z,99.90
2018-06-09T08:55:45.678Z,99.90
2018-06-09T08:56:49.663Z,99.90
2018-06-09T08:57:53.657Z,99.90
2018-06-09T08:58:57.633Z,99.90
2018-06-09T09:00:01.625Z,99.90
2018-06-09T09:01:05.623Z,99.80
2018-06-09T09:02:09.641Z,99.50
2018-06-09T09:03:13.690Z,99.40
2018-06-09T09:04:17.675Z,99.50
2018-06-09T09:05:21.854Z,99.60
2018-06-09T09:06:25.876Z,99.60
2018-06-09T09:07:30.036Z,99.50
2018-06-09T09:08:34.207Z,99.30
2018-06-09T09:09:38.291Z,99.00
2018-06-09T09:10:42.336Z,98.60
2018-06-09T09:11:46.355Z,98.70
2018-06-09T09:12:50.393Z,98.80
2018-06-09T09:13:54.477Z,98.80
2018-06-09T09:14:58.511Z,98.50
2018-06-09T09:16:02.614Z,98.50
2018-06-09T09:17:06.650Z,98.70
2018-06-09T09:18:10.657Z,98.50
2018-06-09T09:19:14.696Z,98.60
2018-06-09T09:20:18.671Z,98.30
2018-06-09T09:21:22.659Z,98.40
2018-06-09T09:22:26.710Z,98.30
2018-06-09T09:23:30.683Z,98.20
2018-06-09T09:24:34.663Z,98.40
2018-06-09T09:25:38.640Z,98.50
2018-06-09T09:26:42.656Z,98.50
2018-06-09T09:27:46.609Z,98.50
2018-06-09T09:28:50.610Z,98.60
2018-06-09T09:29:54.594Z,98.50
2018-06-09T09:30:58.734Z,98.60
2018-06-09T09:32:02.822Z,98.30
2018-06-09T09:33:06.811Z,98.20
2018-06-09T09:34:10.788Z,98.10
2018-06-09T09:35:14.759Z,98.00
2018-06-09T09:37:22.546Z,98.30
2018-06-09T09:38:26.500Z,98.20
2018-06-09T09:39:30.495Z,97.90
2018-06-09T09:40:34.518Z,97.80
2018-06-09T09:41:38.696Z,98.00
2018-06-09T09:42:42.690Z,98.10
2018-06-09T09:43:46.793Z,98.20
2018-06-09T09:44:50.776Z,98.10
2018-06-09T09:45:54.782Z,98.10
2018-06-09T09:46:58.864Z,98.00
2018-06-09T09:48:02.887Z,98.20
2018-06-09T09:49:06.895Z,98.50
2018-06-09T09:50:10.920Z,98.70
2018-06-09T09:51:14.959Z,99.00
2018-06-09T09:52:18.968Z,98.60
2018-06-09T09:53:22.977Z,98.80
2018-06-09T09:54:26.955Z,98.90
2018-06-09T09:55:30.931Z,99.00
2018-06-09T09:56:34.954Z,99.10
2018-06-09T09:58:10.062Z,98.70
2018-06-09T09:59:14.160Z,98.30
2018-06-09T10:00:23.210Z,98.20
2018-06-09T10:01:27.450Z,98.30
2018-06-09T10:03:35.162Z,97.80
2018-06-09T10:04:39.296Z,97.90
2018-06-09T10:05:43.606Z,98.00
2018-06-09T10:06:47.629Z,98.10
2018-06-09T10:07:51.702Z,98.30
2018-06-09T10:08:55.685Z,98.10
2018-06-09T10:09:59.774Z,98.00
2018-06-09T10:11:03.928Z,98.20
2018-06-09T10:12:07.995Z,98.30
2018-06-09T10:13:11.999Z,98.10
2018-06-09T10:14:16.082Z,97.80
2018-06-09T10:15:20.138Z,97.70
2018-06-09T10:16:24.151Z,97.80
2018-06-09T10:17:28.244Z,97.80
2018-06-09T10:18:32.248Z,98.10
2018-06-09T10:19:36.342Z,97.70
2018-06-09T10:20:40.376Z,98.10
2018-06-09T10:21:44.363Z,97.80
2018-06-09T10:22:48.737Z,97.60
2018-06-09T10:23:53.130Z,97.70
2018-06-09T10:24:57.096Z,97.70
2018-06-09T10:26:01.167Z,97.70
2018-06-09T10:27:05.304Z,97.70
2018-06-09T10:28:09.556Z,97.50
2018-06-09T10:29:13.692Z,97.80
2018-06-09T10:30:17.732Z,97.70
2018-06-09T10:31:21.812Z,97.30
2018-06-09T10:32:25.808Z,97.40
2018-06-09T10:33:29.915Z,97.20
2018-06-09T10:34:34.367Z,97.00
2018-06-09T10:35:38.468Z,97.00
2018-06-09T10:36:42.615Z,96.60
2018-06-09T10:37:46.775Z,96.80
2018-06-09T10:38:50.933Z,97.00
2018-06-09T10:39:55.018Z,96.90
2018-06-09T10:40:59.290Z,97.20
2018-06-09T10:42:03.504Z,97.30
2018-06-09T10:43:08.022Z,97.50
2018-06-09T10:44:12.783Z,97.50
2018-06-09T10:45:17.122Z,97.40
2018-06-09T10:46:21.135Z,97.60
2018-06-09T10:47:25.650Z,97.40
2018-06-09T10:48:29.916Z,97.30
2018-06-09T10:49:34.389Z,97.10
2018-06-09T10:50:38.572Z,96.90
2018-06-09T10:51:42.554Z,96.90
2018-06-09T10:52:46.608Z,96.60
2018-06-09T10:53:50.733Z,96.40
2018-06-09T10:54:54.809Z,96.30
2018-06-09T10:55:58.775Z,96.00
2018-06-09T10:57:02.779Z,96.00
2018-06-09T10:58:06.756Z,96.00
2018-06-09T10:59:10.735Z,95.70
2018-06-09T11:01:18.430Z,95.50
2018-06-09T11:02:22.462Z,95.20
2018-06-09T11:03:26.487Z,95.40
2018-06-09T11:04:30.515Z,96.00
2018-06-09T11:05:34.486Z,96.00
2018-06-09T11:06:38.490Z,95.80
2018-06-09T11:07:42.474Z,95.90
2018-06-09T11:08:46.476Z,95.80
2018-06-09T11:09:50.475Z,95.80
2018-06-09T11:10:54.518Z,95.70
2018-06-09T11:11:58.522Z,95.80
2018-06-09T11:13:02.708Z,95.80
2018-06-09T11:14:06.687Z,96.10
2018-06-09T11:15:10.689Z,96.30
2018-06-09T11:16:14.690Z,96.40
2018-06-09T11:17:18.761Z,96.00
2018-06-09T11:18:22.763Z,96.10
2018-06-09T11:19:26.778Z,95.80
2018-06-09T11:20:30.798Z,96.00
2018-06-09T11:21:34.786Z,95.60
2018-06-09T11:22:38.749Z,95.60
2018-06-09T11:23:42.774Z,95.40
2018-06-09T11:24:46.793Z,95.60
2018-06-09T11:25:50.775Z,95.40
2018-06-09T11:26:54.795Z,95.10
2018-06-09T11:27:58.860Z,95.00
2018-06-09T11:29:02.864Z,94.80
2018-06-09T11:31:10.531Z,94.50
2018-06-09T11:32:14.542Z,94.50
2018-06-09T11:33:18.594Z,94.50
2018-06-09T11:34:22.578Z,94.40
2018-06-09T11:36:30.323Z,94.30
2018-06-09T11:37:34.378Z,94.10
2018-06-09T11:38:38.384Z,93.90
2018-06-09T11:39:42.327Z,93.90
2018-06-09T11:40:46.347Z,94.00
2018-06-09T11:41:50.384Z,94.10
2018-06-09T11:42:54.383Z,93.90
2018-06-09T11:43:58.492Z,94.00
2018-06-09T11:45:02.706Z,94.50
2018-06-09T11:46:06.711Z,94.40
2018-06-09T11:47:10.875Z,94.70
2018-06-09T11:48:14.846Z,94.70
2018-06-09T11:49:18.922Z,94.90
2018-06-09T11:50:22.969Z,94.90
2018-06-09T11:52:30.599Z,94.60
2018-06-09T11:53:34.670Z,94.60
2018-06-09T11:54:38.688Z,94.50
2018-06-09T11:55:42.700Z,94.30
2018-06-09T11:56:46.763Z,94.20
2018-06-09T11:57:51.064Z,94.30
2018-06-09T11:58:55.066Z,94.30
2018-06-09T11:59:59.111Z,94.30
2018-06-09T12:01:03.123Z,94.30
2018-06-09T12:02:07.109Z,94.20
2018-06-09T12:03:11.139Z,94.00
2018-06-09T12:04:15.161Z,94.30
2018-06-09T12:05:19.175Z,94.10
2018-06-09T12:07:26.910Z,93.40
2018-06-09T12:08:30.926Z,92.90
2018-06-09T12:09:34.931Z,93.10
2018-06-09T12:10:38.959Z,93.60
2018-06-09T12:11:42.998Z,93.70
2018-06-09T12:12:47.022Z,93.30
2018-06-09T12:13:51.027Z,93.50
2018-06-09T12:14:55.013Z,93.30
2018-06-09T12:15:59.017Z,92.80
2018-06-09T12:17:03.302Z,92.10
2018-06-09T12:18:07.387Z,92.10
2018-06-09T12:19:11.559Z,92.80
2018-06-09T12:20:15.611Z,92.20
2018-06-09T12:21:19.637Z,92.50
2018-06-09T12:22:23.813Z,92.80
2018-06-09T12:23:27.832Z,92.00
2018-06-09T12:24:31.811Z,92.00
2018-06-09T12:25:35.803Z,91.50
2018-06-09T12:26:39.848Z,91.30
2018-06-09T12:27:43.843Z,91.40
2018-06-09T12:28:47.821Z,91.40
2018-06-09T12:30:55.480Z,91.40
2018-06-09T12:31:59.470Z,91.00
2018-06-09T12:33:03.480Z,90.80
2018-06-09T12:34:07.413Z,90.80
2018-06-09T12:35:11.429Z,90.80
2018-06-09T12:37:19.036Z,90.40
2018-06-09T12:38:23.030Z,90.50
2018-06-09T12:39:27.074Z,90.20
2018-06-09T12:40:31.054Z,90.40
2018-06-09T12:41:35.246Z,90.10
2018-06-09T12:42:39.298Z,90.00
2018-06-09T12:43:43.301Z,89.60
2018-06-09T12:44:47.265Z,89.70
2018-06-09T12:45:51.267Z,89.70
2018-06-09T12:46:55.264Z,88.80
2018-06-09T12:47:59.314Z,89.30
2018-06-09T12:50:06.962Z,89.20
2018-06-09T12:51:10.996Z,89.60
2018-06-09T12:52:15.037Z,89.70
2018-06-09T12:53:19.038Z,90.10
2018-06-09T12:54:23.063Z,88.80
2018-06-09T12:55:27.061Z,89.40
2018-06-09T12:56:31.063Z,88.10
2018-06-09T12:57:35.028Z,88.10
2018-06-09T12:58:39.059Z,87.80
2018-06-09T12:59:43.031Z,86.70
2018-06-09T13:00:47.028Z,87.00
2018-06-09T13:01:50.973Z,86.30
2018-06-09T13:02:54.978Z,87.00
2018-06-09T13:03:58.929Z,87.50
2018-06-09T13:05:02.904Z,86.90
2018-06-09T13:06:06.915Z,86.80
2018-06-09T13:07:10.904Z,87.10
2018-06-09T13:08:14.883Z,86.60
2018-06-09T13:09:18.877Z,86.80
2018-06-09T13:10:22.833Z,87.00
2018-06-09T13:11:26.824Z,86.70
2018-06-09T13:12:31.300Z,86.70
2018-06-09T13:13:35.266Z,87.10
2018-06-09T13:14:39.266Z,87.00
2018-06-09T13:15:43.255Z,87.00
2018-06-09T13:16:47.194Z,86.00
2018-06-09T13:17:51.187Z,86.00
2018-06-09T13:18:55.190Z,84.80
2018-06-09T13:19:59.145Z,85.20
2018-06-09T13:21:03.164Z,85.00
2018-06-09T13:22:07.098Z,83.60
2018-06-09T13:23:11.149Z,83.60
2018-06-09T13:24:15.147Z,84.10
2018-06-09T13:25:19.127Z,84.10
2018-06-09T13:26:23.130Z,84.20
2018-06-09T13:27:27.111Z,83.90
2018-06-09T13:28:31.099Z,84.30
2018-06-09T13:29:35.051Z,85.50
2018-06-09T13:30:39.123Z,86.80
2018-06-09T13:31:43.148Z,87.20
2018-06-09T13:32:47.139Z,87.20
2018-06-09T13:33:51.135Z,88.20
2018-06-09T13:34:55.126Z,88.00
2018-06-09T13:35:59.145Z,87.90
2018-06-09T13:37:03.166Z,87.20
2018-06-09T13:38:07.134Z,86.10
2018-06-09T13:39:11.331Z,85.00
2018-06-09T13:40:15.375Z,84.20
2018-06-09T13:41:19.358Z,83.40
2018-06-09T13:42:23.351Z,83.90
2018-06-09T13:43:27.377Z,81.90
2018-06-09T13:44:31.318Z,81.40
2018-06-09T13:45:35.286Z,81.30
2018-06-09T13:46:39.268Z,81.10
2018-06-09T13:47:43.245Z,80.60
2018-06-09T13:48:47.225Z,79.10
2018-06-09T13:49:51.236Z,79.10
2018-06-09T13:50:55.226Z,78.40
2018-06-09T13:51:59.169Z,77.80
2018-06-09T13:53:03.215Z,78.20
2018-06-09T13:54:07.216Z,77.70
2018-06-09T13:55:11.198Z,77.60
2018-06-09T13:56:15.194Z,78.10
2018-06-09T13:57:19.192Z,76.30
2018-06-09T13:58:23.165Z,76.00
2018-06-09T13:59:27.195Z,76.30
2018-06-09T14:00:31.172Z,76.60
2018-06-09T14:01:35.861Z,77.30
2018-06-09T14:02:39.836Z,77.30
2018-06-09T14:03:43.823Z,79.20
2018-06-09T14:04:47.977Z,79.30
2018-06-09T14:05:52.010Z,79.90
2018-06-09T14:06:55.995Z,81.10
2018-06-09T14:08:00.766Z,81.70
2018-06-09T14:09:06.907Z,82.30
2018-06-09T14:10:10.992Z,82.70
2018-06-09T14:11:15.041Z,83.10
2018-06-09T14:12:19.068Z,83.60
2018-06-09T14:13:23.055Z,83.30
2018-06-09T14:14:27.011Z,81.50